KIWD Weather

FAA AWOS (Automated Weather Observing System)

Weather observations for the last 3 days click here.

KIWD

METAR
KIWD 242356Z AUTO 33004KT 10SM CLR 15/09 A3011 RMK AO2 SLP202 6//// T01500094 10172 20139 53002 PNO $
KIWD 242256Z AUTO 33005KT 10SM CLR 16/10 A3011 RMK AO2 SLP199 T01610100 PNO $
TAF
KIWD 242331Z 2500/2524 05006KT P6SM SCT200 FM251000 12005KT P6SM BKN100 FM251400 12005KT P6SM SCT090